createdAt,value
2022-09-09T00:01:31.551Z,10.30
2022-09-09T00:02:33.639Z,9.67
2022-09-09T00:03:48.302Z,10.10
2022-09-09T00:05:19.886Z,9.81
2022-09-09T00:06:36.722Z,10.13
2022-09-09T00:07:54.034Z,9.85
2022-09-09T00:09:07.392Z,9.54
2022-09-09T00:10:22.109Z,8.89
2022-09-09T00:11:49.011Z,10.01
2022-09-09T00:13:33.015Z,9.82
2022-09-09T00:14:47.841Z,9.47
2022-09-09T00:16:26.120Z,9.38
2022-09-09T00:17:34.639Z,10.03
2022-09-09T00:18:59.673Z,9.82
2022-09-09T00:20:21.894Z,9.97
2022-09-09T00:21:34.074Z,9.47
2022-09-09T00:22:43.440Z,10.32
2022-09-09T00:23:57.360Z,9.94
2022-09-09T00:25:24.544Z,9.57
2022-09-09T00:27:01.318Z,9.58
2022-09-09T00:28:02.953Z,9.88
2022-09-09T00:29:13.323Z,9.86
2022-09-09T00:30:24.813Z,9.26
2022-09-09T00:31:30.635Z,9.32
2022-09-09T00:32:36.627Z,10.19
2022-09-09T00:33:39.689Z,10.27
2022-09-09T00:34:59.766Z,9.77
2022-09-09T00:36:04.003Z,10.21
2022-09-09T00:37:09.343Z,9.84
2022-09-09T00:38:19.053Z,9.72
2022-09-09T00:39:38.682Z,10.29
2022-09-09T00:40:51.597Z,9.93
2022-09-09T00:42:19.444Z,9.96
2022-09-09T00:43:37.386Z,9.01
2022-09-09T00:44:40.587Z,9.71
2022-09-09T00:45:57.108Z,9.96
2022-09-09T00:47:10.596Z,9.52
2022-09-09T00:48:13.262Z,10.05
2022-09-09T00:49:21.158Z,10.44
2022-09-09T00:50:26.859Z,9.75
2022-09-09T00:51:37.555Z,9.27
2022-09-09T00:52:52.395Z,10.09
2022-09-09T00:54:49.444Z,10.14
2022-09-09T00:56:12.913Z,9.88
2022-09-09T00:57:24.771Z,10.24
2022-09-09T00:58:28.575Z,10.34
2022-09-09T00:59:51.638Z,9.96
2022-09-09T01:01:13.976Z,9.88
2022-09-09T01:03:00.194Z,10.06
2022-09-09T01:04:17.115Z,10.17
2022-09-09T01:05:34.186Z,9.99
2022-09-09T01:06:39.508Z,9.80
2022-09-09T01:07:48.812Z,9.84
2022-09-09T01:08:59.263Z,9.87
2022-09-09T01:10:15.170Z,10.19
2022-09-09T01:11:37.318Z,9.94
2022-09-09T01:12:44.779Z,10.03
2022-09-09T01:14:02.662Z,9.97
2022-09-09T01:15:27.205Z,9.86
2022-09-09T01:16:32.507Z,9.93
2022-09-09T01:17:50.807Z,10.15
2022-09-09T01:18:55.703Z,9.68
2022-09-09T01:20:10.347Z,10.33
2022-09-09T01:21:33.828Z,10.48
2022-09-09T01:22:51.349Z,10.04
2022-09-09T01:24:20.553Z,10.10
2022-09-09T01:26:13.708Z,10.28
2022-09-09T01:27:19.228Z,10.96
2022-09-09T01:28:27.504Z,9.93
2022-09-09T01:29:33.874Z,9.99
2022-09-09T01:30:40.215Z,9.73
2022-09-09T01:32:00.105Z,9.89
2022-09-09T01:33:03.613Z,9.65
2022-09-09T01:34:15.583Z,9.67
2022-09-09T01:35:37.974Z,9.96
2022-09-09T01:36:54.180Z,10.31
2022-09-09T01:37:55.985Z,10.52
2022-09-09T01:38:58.446Z,10.59
2022-09-09T01:40:00.437Z,10.95
2022-09-09T01:41:02.827Z,10.72
2022-09-09T01:42:17.204Z,10.81
2022-09-09T01:43:22.513Z,10.92
2022-09-09T01:44:27.600Z,10.91
2022-09-09T01:45:29.950Z,10.39
2022-09-09T01:46:31.875Z,10.85
2022-09-09T01:47:36.111Z,10.28
2022-09-09T01:48:46.738Z,10.25
2022-09-09T01:49:48.521Z,10.92
2022-09-09T01:50:56.834Z,10.87
2022-09-09T01:51:59.664Z,10.07
2022-09-09T01:53:10.446Z,10.03
2022-09-09T01:54:12.447Z,10.46
2022-09-09T01:55:15.092Z,10.89
2022-09-09T01:56:26.076Z,11.59
2022-09-09T01:58:07.508Z,11.35
2022-09-09T01:59:34.226Z,11.01
2022-09-09T02:00:51.932Z,10.46
2022-09-09T02:02:31.169Z,11.62
2022-09-09T02:04:01.200Z,11.46
2022-09-09T02:05:14.013Z,10.58
2022-09-09T02:06:32.683Z,10.92
2022-09-09T02:07:48.607Z,11.80
2022-09-09T02:09:08.334Z,11.15
2022-09-09T02:10:20.500Z,11.87
2022-09-09T02:11:29.981Z,10.86
2022-09-09T02:12:43.976Z,12.18
2022-09-09T02:13:48.901Z,11.27
2022-09-09T02:14:58.642Z,12.55
2022-09-09T02:16:10.183Z,11.43
2022-09-09T02:17:19.834Z,11.24
2022-09-09T02:19:28.813Z,11.47
2022-09-09T02:20:39.591Z,12.28
2022-09-09T02:21:45.822Z,11.43
2022-09-09T02:22:52.207Z,11.40
2022-09-09T02:23:59.710Z,11.45
2022-09-09T02:25:06.392Z,11.19
2022-09-09T02:26:14.205Z,11.33
2022-09-09T02:27:19.513Z,11.46
2022-09-09T02:28:26.441Z,12.19
2022-09-09T02:29:42.274Z,12.08
2022-09-09T02:30:49.704Z,13.15
2022-09-09T02:31:58.962Z,12.04
2022-09-09T02:33:08.252Z,11.82
2022-09-09T02:34:22.790Z,11.65
2022-09-09T02:35:27.701Z,12.32
2022-09-09T02:36:35.186Z,11.75
2022-09-09T02:37:40.572Z,11.71
2022-09-09T02:38:51.658Z,11.61
2022-09-09T02:39:53.645Z,12.42
2022-09-09T02:40:56.960Z,11.73
2022-09-09T02:41:58.726Z,12.10
2022-09-09T02:43:07.369Z,11.96
2022-09-09T02:44:17.880Z,12.90
2022-09-09T02:45:26.238Z,12.64
2022-09-09T02:46:47.134Z,12.98
2022-09-09T02:48:04.710Z,12.38
2022-09-09T02:49:16.899Z,13.81
2022-09-09T02:50:27.016Z,12.98
2022-09-09T02:51:41.936Z,13.17
2022-09-09T02:52:51.272Z,12.56
2022-09-09T02:54:22.260Z,14.30
2022-09-09T02:55:33.182Z,13.31
2022-09-09T02:56:42.989Z,12.99
2022-09-09T02:57:49.459Z,13.10
2022-09-09T02:58:52.886Z,13.23
2022-09-09T02:59:59.138Z,13.60
2022-09-09T03:01:03.876Z,12.91
2022-09-09T03:02:06.087Z,13.79
2022-09-09T03:03:12.217Z,14.53
2022-09-09T03:04:14.821Z,13.26
2022-09-09T03:05:16.746Z,13.67
2022-09-09T03:06:18.460Z,13.50
2022-09-09T03:07:23.053Z,13.19
2022-09-09T03:08:25.263Z,12.88
2022-09-09T03:09:28.249Z,13.37
2022-09-09T03:10:30.223Z,13.19
2022-09-09T03:11:32.365Z,13.34
2022-09-09T03:12:34.627Z,13.51
2022-09-09T03:13:36.541Z,13.66
2022-09-09T03:14:39.482Z,13.58
2022-09-09T03:15:41.691Z,13.52
2022-09-09T03:16:45.266Z,13.92
2022-09-09T03:17:47.240Z,13.68
2022-09-09T03:18:49.402Z,13.98
2022-09-09T03:19:53.624Z,14.22
2022-09-09T03:20:55.364Z,14.61
2022-09-09T03:21:57.520Z,13.99
2022-09-09T03:23:01.161Z,14.27
2022-09-09T03:24:04.342Z,13.29
2022-09-09T03:25:06.858Z,13.90
2022-09-09T03:26:09.256Z,14.08
2022-09-09T03:27:15.584Z,14.75
2022-09-09T03:28:17.347Z,14.68
2022-09-09T03:29:19.583Z,15.67
2022-09-09T03:30:22.722Z,14.75
2022-09-09T03:31:25.175Z,15.32
2022-09-09T03:32:27.471Z,14.77
2022-09-09T03:33:30.522Z,15.01
2022-09-09T03:34:32.512Z,15.14
2022-09-09T03:35:34.500Z,15.80
2022-09-09T03:36:36.780Z,15.39
2022-09-09T03:37:39.997Z,14.48
2022-09-09T03:38:42.904Z,14.96
2022-09-09T03:39:45.095Z,15.72
2022-09-09T03:40:56.445Z,15.55
2022-09-09T03:41:58.423Z,14.23
2022-09-09T03:43:00.560Z,15.76
2022-09-09T03:44:02.482Z,15.32
2022-09-09T03:45:10.330Z,16.01
2022-09-09T03:46:12.535Z,15.95
2022-09-09T03:47:14.824Z,16.09
2022-09-09T03:48:17.937Z,16.45
2022-09-09T03:49:21.187Z,16.84
2022-09-09T03:50:23.109Z,16.69
2022-09-09T03:51:25.473Z,16.73
2022-09-09T03:52:27.447Z,17.65
2022-09-09T03:53:29.857Z,16.05
2022-09-09T03:54:31.607Z,17.00
2022-09-09T03:55:33.828Z,16.63
2022-09-09T03:56:36.486Z,17.06
2022-09-09T03:57:38.829Z,17.67
2022-09-09T03:58:42.951Z,18.48
2022-09-09T03:59:46.044Z,17.70
2022-09-09T04:00:59.674Z,17.23
2022-09-09T04:02:03.284Z,17.60
2022-09-09T04:03:05.001Z,17.26
2022-09-09T04:04:06.737Z,17.68
2022-09-09T04:05:08.982Z,18.64
2022-09-09T04:06:13.452Z,19.13
2022-09-09T04:07:16.906Z,18.74
2022-09-09T04:08:19.974Z,19.25
2022-09-09T04:09:21.994Z,19.13
2022-09-09T04:10:24.239Z,18.29
2022-09-09T04:11:26.892Z,18.30
2022-09-09T04:12:29.098Z,18.49
2022-09-09T04:13:31.654Z,18.46
2022-09-09T04:14:33.872Z,18.63
2022-09-09T04:15:36.632Z,18.60
2022-09-09T04:16:38.705Z,18.19
2022-09-09T04:17:40.646Z,18.22
2022-09-09T04:18:43.097Z,19.69
2022-09-09T04:19:44.884Z,19.39
2022-09-09T04:20:51.119Z,19.66
2022-09-09T04:21:53.950Z,18.99
2022-09-09T04:22:56.466Z,19.33
2022-09-09T04:23:58.625Z,18.92
2022-09-09T04:25:00.648Z,19.02
2022-09-09T04:26:05.120Z,19.36
2022-09-09T04:27:07.802Z,18.69
2022-09-09T04:28:10.791Z,18.43
2022-09-09T04:29:12.517Z,19.09
2022-09-09T04:30:15.504Z,19.92
2022-09-09T04:31:24.567Z,19.18
2022-09-09T04:32:28.669Z,20.83
2022-09-09T04:33:33.658Z,20.01
2022-09-09T04:34:38.318Z,20.65
2022-09-09T04:35:44.605Z,20.15
2022-09-09T04:36:46.737Z,19.95
2022-09-09T04:37:49.559Z,20.78
2022-09-09T04:38:52.354Z,20.04
2022-09-09T04:39:54.072Z,20.69
2022-09-09T04:40:55.877Z,20.92
2022-09-09T04:41:57.831Z,20.26
2022-09-09T04:43:01.606Z,19.80
2022-09-09T04:44:04.737Z,20.27
2022-09-09T04:45:08.207Z,20.02
2022-09-09T04:46:10.558Z,19.99
2022-09-09T04:47:13.007Z,19.82
2022-09-09T04:48:15.211Z,20.03
2022-09-09T04:49:16.929Z,20.05
2022-09-09T04:50:19.681Z,19.23
2022-09-09T04:51:22.739Z,19.16
2022-09-09T04:52:24.649Z,19.51
2022-09-09T04:53:27.246Z,18.04
2022-09-09T04:54:29.608Z,18.45
2022-09-09T04:55:32.235Z,18.47
2022-09-09T04:56:34.091Z,18.44
2022-09-09T04:57:36.077Z,18.36
2022-09-09T04:58:39.316Z,18.53
2022-09-09T04:59:41.466Z,18.20
2022-09-09T05:00:43.411Z,18.40
2022-09-09T05:01:45.169Z,18.64
2022-09-09T05:02:48.625Z,18.41
2022-09-09T05:03:50.669Z,18.46
2022-09-09T05:04:55.007Z,18.50
2022-09-09T05:06:05.188Z,17.70
2022-09-09T05:07:07.632Z,18.59
2022-09-09T05:08:10.149Z,17.74
2022-09-09T05:09:11.850Z,17.78
2022-09-09T05:10:17.580Z,18.07
2022-09-09T05:11:25.218Z,17.23
2022-09-09T05:12:28.126Z,17.39
2022-09-09T05:13:32.970Z,16.51
2022-09-09T05:14:37.308Z,17.13
2022-09-09T05:15:39.558Z,17.63
2022-09-09T05:16:41.673Z,17.73
2022-09-09T05:17:43.703Z,18.63
2022-09-09T05:18:47.085Z,18.96
2022-09-09T05:19:50.156Z,17.80
2022-09-09T05:20:52.238Z,18.45
2022-09-09T05:21:54.064Z,18.54
2022-09-09T05:22:59.585Z,18.15
2022-09-09T05:24:03.459Z,16.94
2022-09-09T05:25:05.973Z,18.12
2022-09-09T05:26:17.041Z,16.83
2022-09-09T05:27:20.954Z,17.20
2022-09-09T05:28:23.439Z,17.23
2022-09-09T05:29:25.272Z,16.20
2022-09-09T05:30:27.369Z,15.32
2022-09-09T05:31:31.478Z,15.65
2022-09-09T05:32:35.315Z,14.92
2022-09-09T05:33:37.283Z,15.09
2022-09-09T05:34:40.367Z,14.92
2022-09-09T05:35:42.361Z,15.00
2022-09-09T05:36:44.152Z,14.56
2022-09-09T05:37:47.052Z,14.44
2022-09-09T05:38:50.912Z,13.93
2022-09-09T05:39:52.776Z,14.29
2022-09-09T05:40:54.767Z,13.57
2022-09-09T05:41:57.073Z,14.71
2022-09-09T05:43:00.969Z,14.27
2022-09-09T05:44:02.907Z,14.70
2022-09-09T05:45:08.597Z,13.89
2022-09-09T05:46:13.575Z,14.02
2022-09-09T05:47:16.259Z,13.44
2022-09-09T05:48:18.491Z,12.58
2022-09-09T05:49:21.375Z,14.00
2022-09-09T05:50:23.573Z,13.54
2022-09-09T05:51:31.256Z,13.35
2022-09-09T05:52:34.134Z,13.35
2022-09-09T05:53:36.619Z,13.31
2022-09-09T05:54:38.872Z,13.70
2022-09-09T05:55:40.610Z,13.91
2022-09-09T05:56:42.818Z,12.98
2022-09-09T05:57:49.726Z,13.22
2022-09-09T05:58:52.728Z,12.87
2022-09-09T05:59:54.704Z,12.78
2022-09-09T06:01:09.235Z,12.91
2022-09-09T06:02:11.098Z,13.38
2022-09-09T06:03:13.314Z,13.00
2022-09-09T06:04:15.998Z,13.16
2022-09-09T06:05:17.730Z,13.36
2022-09-09T06:06:37.622Z,13.73
2022-09-09T06:07:43.009Z,13.75
2022-09-09T06:08:46.302Z,13.93
2022-09-09T06:09:48.525Z,13.78
2022-09-09T06:10:50.177Z,13.42
2022-09-09T06:11:52.231Z,13.31
2022-09-09T06:12:54.752Z,13.92
2022-09-09T06:13:56.713Z,14.40
2022-09-09T06:14:58.382Z,13.76
2022-09-09T06:16:00.798Z,13.95
2022-09-09T06:17:03.634Z,13.72
2022-09-09T06:18:05.796Z,14.40
2022-09-09T06:19:07.865Z,13.32
2022-09-09T06:20:10.351Z,13.39
2022-09-09T06:21:20.905Z,13.44
2022-09-09T06:22:22.877Z,12.85
2022-09-09T06:23:25.698Z,12.55
2022-09-09T06:24:27.339Z,12.30
2022-09-09T06:25:29.659Z,12.52
2022-09-09T06:26:36.876Z,12.52
2022-09-09T06:27:38.914Z,12.89
2022-09-09T06:28:40.777Z,13.10
2022-09-09T06:29:42.406Z,13.21
2022-09-09T06:30:44.197Z,13.37
2022-09-09T06:31:46.104Z,13.30
2022-09-09T06:32:50.944Z,13.35
2022-09-09T06:33:56.090Z,12.51
2022-09-09T06:34:59.524Z,12.71
2022-09-09T06:36:03.098Z,11.97
2022-09-09T06:37:05.593Z,12.43
2022-09-09T06:38:12.053Z,12.29
2022-09-09T06:39:15.277Z,11.91
2022-09-09T06:40:17.215Z,11.60
2022-09-09T06:41:22.368Z,11.73
2022-09-09T06:42:24.335Z,12.18
2022-09-09T06:43:48.843Z,11.26
2022-09-09T06:44:51.663Z,11.62
2022-09-09T06:46:11.457Z,11.83
2022-09-09T06:47:13.753Z,11.73
2022-09-09T06:48:15.893Z,12.17
2022-09-09T06:49:17.539Z,11.76
2022-09-09T06:50:19.283Z,11.43
2022-09-09T06:51:23.276Z,12.86
2022-09-09T06:52:25.863Z,12.11
2022-09-09T06:53:30.791Z,11.60
2022-09-09T06:54:33.012Z,11.19
2022-09-09T06:55:34.680Z,11.27
2022-09-09T06:56:40.729Z,11.48
2022-09-09T06:57:45.633Z,12.10
2022-09-09T06:58:53.316Z,11.49
2022-09-09T06:59:59.679Z,11.71
2022-09-09T07:01:08.609Z,12.57
2022-09-09T07:02:11.015Z,10.70
2022-09-09T07:03:13.107Z,12.14
2022-09-09T07:04:15.306Z,12.80
2022-09-09T07:05:18.923Z,11.77
2022-09-09T07:06:26.370Z,12.29
2022-09-09T07:07:28.362Z,12.57
2022-09-09T07:08:32.256Z,11.97
2022-09-09T07:09:33.962Z,12.25
2022-09-09T07:10:35.594Z,12.66
2022-09-09T07:11:42.974Z,12.30
2022-09-09T07:12:45.581Z,12.08
2022-09-09T07:13:48.354Z,11.48
2022-09-09T07:14:50.398Z,11.24
2022-09-09T07:15:53.533Z,10.98
2022-09-09T07:16:59.335Z,11.93
2022-09-09T07:18:02.669Z,11.40
2022-09-09T07:19:05.618Z,11.35
2022-09-09T07:20:08.006Z,11.57
2022-09-09T07:21:14.621Z,11.23
2022-09-09T07:22:17.110Z,12.08
2022-09-09T07:23:18.883Z,11.21
2022-09-09T07:24:20.654Z,11.07
2022-09-09T07:25:22.949Z,11.45
2022-09-09T07:26:28.478Z,10.94
2022-09-09T07:27:31.172Z,10.68
2022-09-09T07:28:33.419Z,11.68
2022-09-09T07:29:35.487Z,11.33
2022-09-09T07:30:37.308Z,11.17
2022-09-09T07:31:41.131Z,11.48
2022-09-09T07:32:46.623Z,10.91
2022-09-09T07:33:49.389Z,11.00
2022-09-09T07:34:51.897Z,10.96
2022-09-09T07:35:53.945Z,11.26
2022-09-09T07:36:55.626Z,11.73
2022-09-09T07:37:57.362Z,11.45
2022-09-09T07:39:03.235Z,11.70
2022-09-09T07:40:06.948Z,11.65
2022-09-09T07:41:14.674Z,11.36
2022-09-09T07:42:17.319Z,12.65
2022-09-09T07:43:19.991Z,12.76
2022-09-09T07:44:25.715Z,12.75
2022-09-09T07:45:35.781Z,12.42
2022-09-09T07:46:40.755Z,12.13
2022-09-09T07:47:43.501Z,12.29
2022-09-09T07:48:52.273Z,11.98
2022-09-09T07:49:54.521Z,12.28
2022-09-09T07:51:11.858Z,11.48
2022-09-09T07:52:15.857Z,11.95
2022-09-09T07:53:20.922Z,11.52
2022-09-09T07:54:24.608Z,11.89
2022-09-09T07:55:27.403Z,12.17
2022-09-09T07:56:31.006Z,13.36
2022-09-09T07:57:33.353Z,11.83
2022-09-09T07:58:38.437Z,12.18
2022-09-09T07:59:40.486Z,11.34
2022-09-09T08:00:44.566Z,12.73
2022-09-09T08:01:49.315Z,11.63
2022-09-09T08:02:55.103Z,12.19
2022-09-09T08:04:02.756Z,12.00
2022-09-09T08:05:07.069Z,11.75
2022-09-09T08:06:09.818Z,10.76
2022-09-09T08:07:11.706Z,10.72
2022-09-09T08:08:18.983Z,10.31
2022-09-09T08:09:22.343Z,10.96
2022-09-09T08:10:24.168Z,10.04
2022-09-09T08:11:29.998Z,11.05
2022-09-09T08:12:31.966Z,10.65
2022-09-09T08:13:35.642Z,10.71
2022-09-09T08:14:37.476Z,11.45
2022-09-09T08:15:39.619Z,11.67
2022-09-09T08:16:45.080Z,12.03
2022-09-09T08:17:47.385Z,11.54
2022-09-09T08:18:53.438Z,10.94
2022-09-09T08:19:55.237Z,10.40
2022-09-09T08:21:09.348Z,11.05
2022-09-09T08:22:11.263Z,10.90
2022-09-09T08:23:15.053Z,11.38
2022-09-09T08:24:17.764Z,10.67
2022-09-09T08:25:22.132Z,10.44
2022-09-09T08:26:27.717Z,11.61
2022-09-09T08:27:29.443Z,10.38
2022-09-09T08:28:31.992Z,11.18
2022-09-09T08:29:33.806Z,11.00
2022-09-09T08:30:35.471Z,10.33
2022-09-09T08:31:40.349Z,10.76
2022-09-09T08:32:45.536Z,11.44
2022-09-09T08:33:53.140Z,11.71
2022-09-09T08:35:01.124Z,10.41
2022-09-09T08:36:04.162Z,11.00
2022-09-09T08:37:06.493Z,12.22
2022-09-09T08:38:12.103Z,10.98
2022-09-09T08:39:16.684Z,11.23
2022-09-09T08:40:30.195Z,10.78
2022-09-09T08:41:51.961Z,11.03
2022-09-09T08:42:58.270Z,10.56
2022-09-09T08:44:08.745Z,9.78
2022-09-09T08:45:22.022Z,10.53
2022-09-09T08:46:40.551Z,10.02
2022-09-09T08:48:08.967Z,10.53
2022-09-09T08:49:59.488Z,10.53
2022-09-09T08:51:03.126Z,10.77
2022-09-09T08:52:17.514Z,9.55
2022-09-09T08:53:34.093Z,9.58
2022-09-09T08:54:51.714Z,10.30
2022-09-09T08:55:56.614Z,9.61
2022-09-09T08:57:04.415Z,9.86
2022-09-09T08:58:16.892Z,9.22
2022-09-09T08:59:20.162Z,8.76
2022-09-09T09:00:22.324Z,8.79
2022-09-09T09:01:42.897Z,8.61
2022-09-09T09:03:04.132Z,9.02
2022-09-09T09:04:45.625Z,8.94
2022-09-09T09:06:01.034Z,7.97
2022-09-09T09:07:05.862Z,8.68
2022-09-09T09:08:16.975Z,8.33
2022-09-09T09:09:38.282Z,8.71
2022-09-09T09:10:50.446Z,8.97
2022-09-09T09:12:01.686Z,8.31
2022-09-09T09:13:43.053Z,8.40
2022-09-09T09:14:49.050Z,7.68
2022-09-09T09:16:01.322Z,7.67
2022-09-09T09:17:12.105Z,7.40
2022-09-09T09:18:14.993Z,7.08
2022-09-09T09:19:19.012Z,6.81
2022-09-09T09:20:32.612Z,6.51
2022-09-09T09:22:08.074Z,7.32
2022-09-09T09:23:23.329Z,8.44
2022-09-09T09:24:45.485Z,7.71
2022-09-09T09:25:47.745Z,8.39
2022-09-09T09:26:49.562Z,8.91
2022-09-09T09:28:02.108Z,8.89
2022-09-09T09:29:17.337Z,9.71
2022-09-09T09:30:29.566Z,8.77
2022-09-09T09:31:33.405Z,8.75
2022-09-09T09:32:37.370Z,8.92
2022-09-09T09:33:50.766Z,8.25
2022-09-09T09:34:59.569Z,7.97
2022-09-09T09:36:03.766Z,7.86
2022-09-09T09:37:22.206Z,8.09
2022-09-09T09:40:05.493Z,7.83
2022-09-09T09:41:07.699Z,7.07
2022-09-09T09:42:20.352Z,6.72
2022-09-09T09:43:37.416Z,6.45
2022-09-09T09:44:43.155Z,6.31
2022-09-09T09:46:06.983Z,5.87
2022-09-09T09:47:15.335Z,6.22
2022-09-09T09:48:18.951Z,6.31
2022-09-09T09:49:20.622Z,5.97
2022-09-09T09:50:22.444Z,5.99
2022-09-09T09:51:29.784Z,5.24
2022-09-09T09:52:35.944Z,5.92
2022-09-09T09:53:40.166Z,5.42
2022-09-09T09:54:43.469Z,6.14
2022-09-09T09:56:25.133Z,5.68
2022-09-09T09:57:32.410Z,5.44
2022-09-09T09:58:47.410Z,6.95
2022-09-09T09:59:50.009Z,6.12
2022-09-09T10:00:58.405Z,6.18
2022-09-09T10:02:27.565Z,6.05
2022-09-09T10:03:41.405Z,5.35
2022-09-09T10:04:43.926Z,6.08
2022-09-09T10:05:48.874Z,6.70
2022-09-09T10:06:52.063Z,6.19
2022-09-09T10:08:15.634Z,6.67
2022-09-09T10:09:27.804Z,8.34
2022-09-09T10:10:49.531Z,7.77
2022-09-09T10:12:07.809Z,8.13
2022-09-09T10:13:25.017Z,8.70
2022-09-09T10:14:34.542Z,8.36
2022-09-09T10:15:54.963Z,8.20
2022-09-09T10:17:22.010Z,8.81
2022-09-09T10:18:29.412Z,8.90
2022-09-09T10:19:37.030Z,8.17
2022-09-09T10:21:06.222Z,9.27
2022-09-09T10:22:27.948Z,9.62
2022-09-09T10:23:48.259Z,9.36
2022-09-09T10:25:08.855Z,9.30
2022-09-09T10:26:13.424Z,8.69
2022-09-09T10:27:30.290Z,8.01
2022-09-09T10:28:57.492Z,8.20
2022-09-09T10:29:59.062Z,9.35
2022-09-09T10:31:15.551Z,9.64
2022-09-09T10:32:41.698Z,9.62
2022-09-09T10:33:56.901Z,9.91
2022-09-09T10:35:24.376Z,8.79
2022-09-09T10:36:27.226Z,8.81
2022-09-09T10:37:46.091Z,7.93
2022-09-09T10:39:03.377Z,7.81
2022-09-09T10:40:25.439Z,8.43
2022-09-09T10:41:51.491Z,8.77
2022-09-09T10:43:20.747Z,8.51
2022-09-09T10:44:50.748Z,8.25
2022-09-09T10:46:01.781Z,7.36
2022-09-09T10:47:12.766Z,6.96
2022-09-09T10:48:48.398Z,6.97
2022-09-09T10:49:58.962Z,6.93
2022-09-09T10:51:24.072Z,7.04
2022-09-09T10:52:53.120Z,7.70
2022-09-09T10:54:14.804Z,7.21
2022-09-09T10:55:20.759Z,6.77
2022-09-09T10:56:24.955Z,6.63
2022-09-09T10:57:33.077Z,6.74
2022-09-09T10:58:45.341Z,6.74
2022-09-09T10:59:57.819Z,6.54
2022-09-09T11:01:08.783Z,6.18
2022-09-09T11:02:10.399Z,6.78
2022-09-09T11:03:22.273Z,6.80
2022-09-09T11:04:33.648Z,6.40
2022-09-09T11:05:44.249Z,5.93
2022-09-09T11:06:53.301Z,6.81
2022-09-09T11:08:00.780Z,6.15
2022-09-09T11:09:05.994Z,6.49
2022-09-09T11:10:28.566Z,6.10
2022-09-09T11:11:45.730Z,5.94
2022-09-09T11:12:54.846Z,6.06
2022-09-09T11:14:37.406Z,6.19
2022-09-09T11:15:54.636Z,6.50
2022-09-09T11:17:10.090Z,5.79
2022-09-09T11:18:20.851Z,5.91
2022-09-09T11:19:42.091Z,6.06
2022-09-09T11:20:48.665Z,6.80
2022-09-09T11:21:53.027Z,6.20
2022-09-09T11:23:06.435Z,6.91
2022-09-09T11:24:20.234Z,6.84
2022-09-09T11:25:34.551Z,7.00
2022-09-09T11:26:53.593Z,6.88
2022-09-09T11:28:16.449Z,5.96
2022-09-09T11:29:45.232Z,6.43
2022-09-09T11:30:59.159Z,6.52
2022-09-09T11:32:28.458Z,6.54
2022-09-09T11:34:12.565Z,6.21
2022-09-09T11:35:29.010Z,6.37
2022-09-09T11:36:33.538Z,6.51
2022-09-09T11:38:09.105Z,6.22
2022-09-09T11:39:29.250Z,6.12
2022-09-09T11:40:33.725Z,6.70
2022-09-09T11:41:38.395Z,5.66
2022-09-09T11:42:40.102Z,6.16
2022-09-09T11:43:48.543Z,5.51
2022-09-09T11:44:51.850Z,5.37
2022-09-09T11:46:01.123Z,5.72
2022-09-09T11:47:03.278Z,5.54
2022-09-09T11:48:07.045Z,5.49
2022-09-09T11:49:29.203Z,5.99
2022-09-09T11:50:36.799Z,5.53
2022-09-09T11:51:38.594Z,5.43
2022-09-09T11:52:51.598Z,5.26
2022-09-09T11:54:15.662Z,5.17
2022-09-09T11:55:35.710Z,5.42
2022-09-09T11:56:46.003Z,5.38
2022-09-09T11:57:49.641Z,4.68
2022-09-09T11:59:21.731Z,4.48
2022-09-09T12:00:39.331Z,4.71
2022-09-09T12:01:44.951Z,5.16
2022-09-09T12:02:53.115Z,4.72
2022-09-09T12:04:17.427Z,5.46
2022-09-09T12:05:23.014Z,5.39
2022-09-09T12:06:33.028Z,5.34
2022-09-09T12:07:43.727Z,5.16
2022-09-09T12:08:53.978Z,5.13
2022-09-09T12:10:20.284Z,4.82
2022-09-09T12:11:29.678Z,5.47
2022-09-09T12:12:40.435Z,5.70
2022-09-09T12:13:57.209Z,5.44
2022-09-09T12:15:10.203Z,4.89
2022-09-09T12:16:39.453Z,5.42
2022-09-09T12:17:47.611Z,4.63
2022-09-09T12:18:49.423Z,4.84
2022-09-09T12:20:29.970Z,4.81
2022-09-09T12:21:47.195Z,4.86
2022-09-09T12:23:20.088Z,4.77
2022-09-09T12:24:57.495Z,4.11
2022-09-09T12:26:15.147Z,4.38
2022-09-09T12:27:24.850Z,4.50
2022-09-09T12:28:53.953Z,4.17
2022-09-09T12:30:03.305Z,3.74
2022-09-09T12:31:18.858Z,3.96
2022-09-09T12:32:25.766Z,4.22
2022-09-09T12:33:43.930Z,4.85
2022-09-09T12:34:53.251Z,4.35
2022-09-09T12:36:01.530Z,4.44
2022-09-09T12:37:15.092Z,3.96
2022-09-09T12:38:30.858Z,4.14
2022-09-09T12:39:43.040Z,4.23
2022-09-09T12:40:58.633Z,4.32
2022-09-09T12:42:00.490Z,4.25
2022-09-09T12:43:17.301Z,4.24
2022-09-09T12:44:18.889Z,4.48
2022-09-09T12:45:23.829Z,4.30
2022-09-09T12:46:55.247Z,4.42
2022-09-09T12:48:03.898Z,4.49
2022-09-09T12:49:07.394Z,4.39
2022-09-09T12:50:31.657Z,4.31
2022-09-09T12:51:35.209Z,4.02
2022-09-09T12:52:39.919Z,4.30
2022-09-09T12:53:41.653Z,4.39
2022-09-09T12:54:47.856Z,4.47
2022-09-09T12:55:58.360Z,4.35
2022-09-09T12:57:00.182Z,4.48
2022-09-09T12:58:06.486Z,4.41
2022-09-09T12:59:25.614Z,4.23
2022-09-09T13:00:28.043Z,4.43
2022-09-09T13:01:34.308Z,5.43
2022-09-09T13:02:36.646Z,5.56
2022-09-09T13:03:48.213Z,5.83
2022-09-09T13:04:51.474Z,5.28
2022-09-09T13:05:59.981Z,5.18
2022-09-09T13:07:10.973Z,5.16
2022-09-09T13:08:15.046Z,5.02
2022-09-09T13:10:36.754Z,5.13
2022-09-09T13:11:53.976Z,4.66
2022-09-09T13:12:55.624Z,4.70
2022-09-09T13:14:00.230Z,4.87
2022-09-09T13:15:03.364Z,4.99
2022-09-09T13:16:09.383Z,4.59
2022-09-09T13:17:25.429Z,5.63
2022-09-09T13:18:34.777Z,5.39
2022-09-09T13:19:40.737Z,5.22
2022-09-09T13:20:49.090Z,4.88
2022-09-09T13:21:51.341Z,4.45
2022-09-09T13:22:55.877Z,4.94
2022-09-09T13:23:57.736Z,4.97
2022-09-09T13:25:03.297Z,5.04
2022-09-09T13:26:19.898Z,5.01
2022-09-09T13:27:35.349Z,5.35
2022-09-09T13:28:37.008Z,5.16
2022-09-09T13:29:40.609Z,4.90
2022-09-09T13:30:43.876Z,4.53
2022-09-09T13:31:47.033Z,5.04
2022-09-09T13:32:48.767Z,4.94
2022-09-09T13:33:51.046Z,4.92
2022-09-09T13:34:58.183Z,4.21
2022-09-09T13:36:07.576Z,4.82
2022-09-09T13:37:43.308Z,4.47
2022-09-09T13:38:57.492Z,4.63
2022-09-09T13:39:59.507Z,4.53
2022-09-09T13:41:05.442Z,3.99
2022-09-09T13:42:20.755Z,4.51
2022-09-09T13:43:25.326Z,4.44
2022-09-09T13:44:35.492Z,4.49
2022-09-09T13:45:37.596Z,4.10
2022-09-09T13:46:41.826Z,4.44
2022-09-09T13:47:43.474Z,4.66
2022-09-09T13:48:55.499Z,5.39
2022-09-09T13:49:57.142Z,5.45
2022-09-09T13:51:02.055Z,4.81
2022-09-09T13:52:15.270Z,4.73
2022-09-09T13:53:16.867Z,4.45
2022-09-09T13:54:21.488Z,4.38
2022-09-09T13:55:25.822Z,4.78
2022-09-09T13:56:28.273Z,4.56
2022-09-09T13:57:29.962Z,4.18
2022-09-09T13:58:31.558Z,4.69
2022-09-09T14:00:04.176Z,5.06
2022-09-09T14:00:54.917Z,4.45
2022-09-09T14:01:57.947Z,4.19
2022-09-09T14:03:02.968Z,4.16
2022-09-09T14:04:07.431Z,4.38
2022-09-09T14:05:09.554Z,3.76
2022-09-09T14:06:12.313Z,3.96
2022-09-09T14:07:17.518Z,3.77
2022-09-09T14:08:26.580Z,3.86
2022-09-09T14:09:28.226Z,3.99
2022-09-09T14:10:29.818Z,3.93
2022-09-09T14:11:31.511Z,4.09
2022-09-09T14:12:33.183Z,4.19
2022-09-09T14:13:34.807Z,4.27
2022-09-09T14:14:37.106Z,4.20
2022-09-09T14:15:39.292Z,3.93
2022-09-09T14:16:41.327Z,4.25
2022-09-09T14:17:43.632Z,4.03
2022-09-09T14:18:46.453Z,4.51
2022-09-09T14:19:48.070Z,4.34
2022-09-09T14:20:51.293Z,4.12
2022-09-09T14:21:52.890Z,3.92
2022-09-09T14:22:54.633Z,3.74
2022-09-09T14:23:58.981Z,3.81
2022-09-09T14:25:00.844Z,4.00
2022-09-09T14:26:02.643Z,3.69
2022-09-09T14:27:04.257Z,3.74
2022-09-09T14:28:05.866Z,3.80
2022-09-09T14:29:07.533Z,4.11
2022-09-09T14:30:10.388Z,4.14
2022-09-09T14:31:12.077Z,4.08
2022-09-09T14:32:14.090Z,3.83
2022-09-09T14:33:17.150Z,3.89
2022-09-09T14:34:19.406Z,3.70
2022-09-09T14:35:21.028Z,3.67
2022-09-09T14:36:23.837Z,3.80
2022-09-09T14:37:25.579Z,4.32
2022-09-09T14:38:31.769Z,3.86
2022-09-09T14:39:33.447Z,3.86
2022-09-09T14:40:36.771Z,3.77
2022-09-09T14:41:38.905Z,3.93
2022-09-09T14:42:41.354Z,4.13
2022-09-09T14:43:43.359Z,4.37
2022-09-09T14:44:45.189Z,3.92
2022-09-09T14:45:49.023Z,4.35
2022-09-09T14:46:51.232Z,3.66
2022-09-09T14:47:53.119Z,4.08
2022-09-09T14:50:02.094Z,4.16
2022-09-09T14:51:09.345Z,4.11
2022-09-09T14:52:11.004Z,3.95
2022-09-09T14:53:13.204Z,4.02
2022-09-09T14:54:16.528Z,4.59
2022-09-09T14:55:18.218Z,4.24
2022-09-09T14:56:23.036Z,4.60
2022-09-09T14:57:24.689Z,4.57
2022-09-09T14:58:32.430Z,4.56
2022-09-09T14:59:35.747Z,4.33
2022-09-09T15:00:37.887Z,4.30